Tilford, South Dakota
Current Conditions -  °F | °C
As of 6:58 AM on Friday 24 Oct 2014 (Local Time) from KRCA Reporting Station
Clear Clear  
Wind Chill: 40°   Ceiling: Unl
Heat Index: 45°   Visibility: 10mi
Dew Point: 34°   Wind: 9mph
Humidity: 65%   Direction: 350°N
Pressure: 29.93"   Gusts: NA
Location:  44.2544°N, 103.292°W
Report Text: KRCA 241258Z AUTO 35008KT 10SM CLR 07/01 A2993 RMK AO2 VIS 1 RWY13 SLP142 T00730011 $
Loading
Personal Weather Stations






























Interactive Weather Map
Tropical Storm Tracking
New forecast layout! Learn more

10-Day Weather Forecast

Advertisements
Track Severe Weather on mobile